sensor_id;sensor_type;location;lat;lon;timestamp;P1;durP1;ratioP1;P2;durP2;ratioP2
75038;SDS011;63609;49.992;14.512;2022-10-16T00:02:08;7.13;;;3.80;;
75038;SDS011;63609;49.992;14.512;2022-10-16T00:04:35;7.07;;;4.35;;
75038;SDS011;63609;49.992;14.512;2022-10-16T00:07:02;6.63;;;3.63;;
75038;SDS011;63609;49.992;14.512;2022-10-16T00:09:28;5.68;;;2.70;;
75038;SDS011;63609;49.992;14.512;2022-10-16T00:11:55;6.10;;;3.20;;
75038;SDS011;63609;49.992;14.512;2022-10-16T00:14:22;6.10;;;3.42;;
75038;SDS011;63609;49.992;14.512;2022-10-16T00:16:48;6.43;;;3.85;;
75038;SDS011;63609;49.992;14.512;2022-10-16T00:19:15;7.72;;;3.72;;
75038;SDS011;63609;49.992;14.512;2022-10-16T00:21:43;7.25;;;3.50;;
75038;SDS011;63609;49.992;14.512;2022-10-16T00:24:09;8.02;;;3.65;;
75038;SDS011;63609;49.992;14.512;2022-10-16T00:26:37;5.90;;;3.80;;
75038;SDS011;63609;49.992;14.512;2022-10-16T00:29:06;6.75;;;3.47;;
75038;SDS011;63609;49.992;14.512;2022-10-16T00:31:34;8.50;;;4.38;;
75038;SDS011;63609;49.992;14.512;2022-10-16T00:34:01;5.43;;;3.53;;
75038;SDS011;63609;49.992;14.512;2022-10-16T00:36:28;7.38;;;4.50;;
75038;SDS011;63609;49.992;14.512;2022-10-16T00:38:56;7.22;;;3.75;;
75038;SDS011;63609;49.992;14.512;2022-10-16T00:41:30;6.93;;;4.38;;
75038;SDS011;63609;49.992;14.512;2022-10-16T00:43:59;6.07;;;3.80;;
75038;SDS011;63609;49.992;14.512;2022-10-16T00:46:38;9.38;;;4.25;;
75038;SDS011;63609;49.992;14.512;2022-10-16T00:49:09;7.93;;;3.90;;
75038;SDS011;63609;49.992;14.512;2022-10-16T00:51:40;7.55;;;4.45;;
75038;SDS011;63609;49.992;14.512;2022-10-16T00:54:11;10.80;;;4.65;;
75038;SDS011;63609;49.992;14.512;2022-10-16T00:56:41;6.75;;;3.90;;
75038;SDS011;63609;49.992;14.512;2022-10-16T00:59:22;5.93;;;3.65;;
75038;SDS011;63609;49.992;14.512;2022-10-16T01:01:52;6.82;;;3.75;;
75038;SDS011;63609;49.992;14.512;2022-10-16T01:04:19;6.03;;;3.92;;
75038;SDS011;63609;49.992;14.512;2022-10-16T01:12:19;7.13;;;3.30;;
75038;SDS011;63609;49.992;14.512;2022-10-16T01:28:17;10.02;;;4.00;;
75038;SDS011;63609;49.992;14.512;2022-10-16T01:30:48;7.97;;;3.55;;
75038;SDS011;63609;49.992;14.512;2022-10-16T01:33:36;8.27;;;4.00;;
75038;SDS011;63609;49.992;14.512;2022-10-16T01:36:10;6.53;;;3.60;;
75038;SDS011;63609;49.992;14.512;2022-10-16T01:38:41;6.88;;;3.72;;
75038;SDS011;63609;49.992;14.512;2022-10-16T01:41:14;7.25;;;3.72;;
75038;SDS011;63609;49.992;14.512;2022-10-16T01:43:48;6.00;;;3.58;;
75038;SDS011;63609;49.992;14.512;2022-10-16T01:46:22;6.00;;;3.55;;
75038;SDS011;63609;49.992;14.512;2022-10-16T01:48:50;6.97;;;3.50;;
75038;SDS011;63609;49.992;14.512;2022-10-16T01:51:18;6.38;;;3.45;;
75038;SDS011;63609;49.992;14.512;2022-10-16T01:53:48;4.85;;;3.40;;
75038;SDS011;63609;49.992;14.512;2022-10-16T01:56:19;5.88;;;3.25;;
75038;SDS011;63609;49.992;14.512;2022-10-16T01:58:51;6.35;;;3.80;;
75038;SDS011;63609;49.992;14.512;2022-10-16T02:01:21;6.25;;;4.05;;
75038;SDS011;63609;49.992;14.512;2022-10-16T02:03:53;5.78;;;3.33;;
75038;SDS011;63609;49.992;14.512;2022-10-16T02:06:23;5.90;;;3.50;;
75038;SDS011;63609;49.992;14.512;2022-10-16T02:08:51;5.05;;;2.92;;
75038;SDS011;63609;49.992;14.512;2022-10-16T02:11:18;5.57;;;2.78;;
75038;SDS011;63609;49.992;14.512;2022-10-16T02:13:45;6.32;;;3.20;;
75038;SDS011;63609;49.992;14.512;2022-10-16T02:16:17;4.78;;;3.08;;
75038;SDS011;63609;49.992;14.512;2022-10-16T02:18:44;5.85;;;3.47;;
75038;SDS011;63609;49.992;14.512;2022-10-16T02:21:25;4.93;;;3.05;;
75038;SDS011;63609;49.992;14.512;2022-10-16T02:23:58;6.32;;;3.30;;
75038;SDS011;63609;49.992;14.512;2022-10-16T02:27:10;5.25;;;3.60;;
75038;SDS011;63609;49.992;14.512;2022-10-16T02:29:40;6.32;;;3.05;;
75038;SDS011;63609;49.992;14.512;2022-10-16T02:32:17;9.07;;;3.53;;
75038;SDS011;63609;49.992;14.512;2022-10-16T02:34:51;5.57;;;3.08;;
75038;SDS011;63609;49.992;14.512;2022-10-16T02:37:19;6.18;;;3.13;;
75038;SDS011;63609;49.992;14.512;2022-10-16T02:39:46;7.97;;;3.22;;
75038;SDS011;63609;49.992;14.512;2022-10-16T02:42:13;4.90;;;2.97;;
75038;SDS011;63609;49.992;14.512;2022-10-16T02:44:40;4.80;;;3.05;;
75038;SDS011;63609;49.992;14.512;2022-10-16T02:47:07;5.80;;;3.47;;
75038;SDS011;63609;49.992;14.512;2022-10-16T02:49:34;6.00;;;2.75;;
75038;SDS011;63609;49.992;14.512;2022-10-16T02:52:00;10.50;;;3.88;;
75038;SDS011;63609;49.992;14.512;2022-10-16T02:54:27;5.95;;;3.45;;
75038;SDS011;63609;49.992;14.512;2022-10-16T02:56:54;5.22;;;2.70;;
75038;SDS011;63609;49.992;14.512;2022-10-16T02:59:20;6.88;;;3.17;;
75038;SDS011;63609;49.992;14.512;2022-10-16T03:01:47;6.03;;;3.10;;
75038;SDS011;63609;49.992;14.512;2022-10-16T03:04:14;4.72;;;3.15;;
75038;SDS011;63609;49.992;14.512;2022-10-16T03:06:41;5.28;;;2.80;;
75038;SDS011;63609;49.992;14.512;2022-10-16T03:09:08;4.88;;;2.80;;
75038;SDS011;63609;49.992;14.512;2022-10-16T03:11:34;4.30;;;2.75;;
75038;SDS011;63609;49.992;14.512;2022-10-16T03:14:01;5.63;;;2.60;;
75038;SDS011;63609;49.992;14.512;2022-10-16T03:16:28;5.80;;;2.85;;
75038;SDS011;63609;49.992;14.512;2022-10-16T03:18:54;5.40;;;2.83;;
75038;SDS011;63609;49.992;14.512;2022-10-16T03:21:21;5.05;;;2.67;;
75038;SDS011;63609;49.992;14.512;2022-10-16T03:23:48;5.07;;;2.85;;
75038;SDS011;63609;49.992;14.512;2022-10-16T03:26:15;4.93;;;2.55;;
75038;SDS011;63609;49.992;14.512;2022-10-16T03:28:42;4.90;;;2.92;;
75038;SDS011;63609;49.992;14.512;2022-10-16T03:31:09;5.50;;;2.90;;
75038;SDS011;63609;49.992;14.512;2022-10-16T03:33:35;5.38;;;2.85;;
75038;SDS011;63609;49.992;14.512;2022-10-16T03:36:02;12.98;;;3.13;;
75038;SDS011;63609;49.992;14.512;2022-10-16T03:38:29;6.22;;;3.30;;
75038;SDS011;63609;49.992;14.512;2022-10-16T03:40:56;5.75;;;3.83;;
75038;SDS011;63609;49.992;14.512;2022-10-16T03:43:22;4.70;;;2.95;;
75038;SDS011;63609;49.992;14.512;2022-10-16T03:45:52;6.38;;;3.10;;
75038;SDS011;63609;49.992;14.512;2022-10-16T03:48:18;5.03;;;2.83;;
75038;SDS011;63609;49.992;14.512;2022-10-16T03:50:45;4.82;;;2.97;;
75038;SDS011;63609;49.992;14.512;2022-10-16T03:53:14;6.15;;;3.22;;
75038;SDS011;63609;49.992;14.512;2022-10-16T03:55:41;4.93;;;3.10;;
75038;SDS011;63609;49.992;14.512;2022-10-16T03:58:09;6.65;;;3.38;;
75038;SDS011;63609;49.992;14.512;2022-10-16T04:00:35;3.80;;;2.63;;
75038;SDS011;63609;49.992;14.512;2022-10-16T04:03:06;6.95;;;3.38;;
75038;SDS011;63609;49.992;14.512;2022-10-16T04:05:33;5.78;;;3.08;;
75038;SDS011;63609;49.992;14.512;2022-10-16T04:08:00;4.82;;;2.90;;
75038;SDS011;63609;49.992;14.512;2022-10-16T04:10:26;5.00;;;2.70;;
75038;SDS011;63609;49.992;14.512;2022-10-16T04:12:53;3.63;;;2.10;;
75038;SDS011;63609;49.992;14.512;2022-10-16T04:15:23;4.85;;;2.45;;
75038;SDS011;63609;49.992;14.512;2022-10-16T04:17:50;4.72;;;2.72;;
75038;SDS011;63609;49.992;14.512;2022-10-16T04:20:18;4.90;;;2.90;;
75038;SDS011;63609;49.992;14.512;2022-10-16T04:22:45;5.50;;;3.00;;
75038;SDS011;63609;49.992;14.512;2022-10-16T04:25:11;6.25;;;3.45;;
75038;SDS011;63609;49.992;14.512;2022-10-16T04:27:38;5.00;;;2.90;;
75038;SDS011;63609;49.992;14.512;2022-10-16T04:30:10;5.20;;;2.47;;
75038;SDS011;63609;49.992;14.512;2022-10-16T04:32:37;5.90;;;2.70;;
75038;SDS011;63609;49.992;14.512;2022-10-16T04:35:04;3.72;;;2.40;;
75038;SDS011;63609;49.992;14.512;2022-10-16T04:37:31;4.38;;;2.53;;
75038;SDS011;63609;49.992;14.512;2022-10-16T04:39:58;4.03;;;3.00;;
75038;SDS011;63609;49.992;14.512;2022-10-16T04:42:25;6.63;;;2.33;;
75038;SDS011;63609;49.992;14.512;2022-10-16T04:44:51;5.38;;;3.17;;
75038;SDS011;63609;49.992;14.512;2022-10-16T04:47:19;4.53;;;2.53;;
75038;SDS011;63609;49.992;14.512;2022-10-16T04:49:46;5.10;;;2.65;;
75038;SDS011;63609;49.992;14.512;2022-10-16T04:52:13;4.88;;;2.60;;
75038;SDS011;63609;49.992;14.512;2022-10-16T04:54:39;4.20;;;2.47;;
75038;SDS011;63609;49.992;14.512;2022-10-16T04:57:06;3.50;;;2.50;;
75038;SDS011;63609;49.992;14.512;2022-10-16T04:59:33;3.80;;;2.53;;
75038;SDS011;63609;49.992;14.512;2022-10-16T05:01:59;4.43;;;2.70;;
75038;SDS011;63609;49.992;14.512;2022-10-16T05:04:26;4.10;;;2.70;;
75038;SDS011;63609;49.992;14.512;2022-10-16T05:06:52;4.85;;;2.88;;
75038;SDS011;63609;49.992;14.512;2022-10-16T05:09:19;6.10;;;2.97;;
75038;SDS011;63609;49.992;14.512;2022-10-16T05:11:46;5.50;;;2.75;;
75038;SDS011;63609;49.992;14.512;2022-10-16T05:14:13;6.03;;;2.80;;
75038;SDS011;63609;49.992;14.512;2022-10-16T05:16:40;6.88;;;3.13;;
75038;SDS011;63609;49.992;14.512;2022-10-16T05:19:06;5.20;;;2.97;;
75038;SDS011;63609;49.992;14.512;2022-10-16T05:21:52;5.68;;;3.00;;
75038;SDS011;63609;49.992;14.512;2022-10-16T05:24:19;6.95;;;2.95;;
75038;SDS011;63609;49.992;14.512;2022-10-16T05:26:46;3.75;;;2.40;;
75038;SDS011;63609;49.992;14.512;2022-10-16T05:29:13;4.35;;;2.58;;
75038;SDS011;63609;49.992;14.512;2022-10-16T05:31:40;4.63;;;2.35;;
75038;SDS011;63609;49.992;14.512;2022-10-16T05:34:06;5.28;;;3.30;;
75038;SDS011;63609;49.992;14.512;2022-10-16T05:36:33;5.40;;;3.13;;
75038;SDS011;63609;49.992;14.512;2022-10-16T05:39:00;4.63;;;2.80;;
75038;SDS011;63609;49.992;14.512;2022-10-16T05:41:27;5.05;;;3.05;;
75038;SDS011;63609;49.992;14.512;2022-10-16T05:43:54;5.63;;;3.20;;
75038;SDS011;63609;49.992;14.512;2022-10-16T05:46:20;6.28;;;3.10;;
75038;SDS011;63609;49.992;14.512;2022-10-16T05:48:47;4.97;;;2.40;;
75038;SDS011;63609;49.992;14.512;2022-10-16T05:51:14;5.32;;;2.83;;
75038;SDS011;63609;49.992;14.512;2022-10-16T05:53:41;4.55;;;2.70;;
75038;SDS011;63609;49.992;14.512;2022-10-16T05:56:09;4.97;;;2.65;;
75038;SDS011;63609;49.992;14.512;2022-10-16T05:58:37;5.20;;;2.85;;
75038;SDS011;63609;49.992;14.512;2022-10-16T06:01:10;4.90;;;3.00;;
75038;SDS011;63609;49.992;14.512;2022-10-16T06:03:39;4.50;;;2.95;;
75038;SDS011;63609;49.992;14.512;2022-10-16T06:06:14;3.55;;;2.35;;
75038;SDS011;63609;49.992;14.512;2022-10-16T06:08:43;5.53;;;2.70;;
75038;SDS011;63609;49.992;14.512;2022-10-16T06:11:13;4.03;;;2.38;;
75038;SDS011;63609;49.992;14.512;2022-10-16T06:13:42;5.13;;;2.45;;
75038;SDS011;63609;49.992;14.512;2022-10-16T06:16:09;5.93;;;2.88;;
75038;SDS011;63609;49.992;14.512;2022-10-16T06:18:37;5.35;;;2.80;;
75038;SDS011;63609;49.992;14.512;2022-10-16T06:21:09;3.50;;;2.53;;
75038;SDS011;63609;49.992;14.512;2022-10-16T06:26:11;4.03;;;2.75;;
75038;SDS011;63609;49.992;14.512;2022-10-16T06:28:39;5.78;;;2.80;;
75038;SDS011;63609;49.992;14.512;2022-10-16T06:31:07;5.70;;;2.70;;
75038;SDS011;63609;49.992;14.512;2022-10-16T06:33:35;5.65;;;3.28;;
75038;SDS011;63609;49.992;14.512;2022-10-16T06:36:07;5.25;;;2.85;;
75038;SDS011;63609;49.992;14.512;2022-10-16T06:38:41;5.53;;;2.97;;
75038;SDS011;63609;49.992;14.512;2022-10-16T06:41:09;7.18;;;3.30;;
75038;SDS011;63609;49.992;14.512;2022-10-16T06:43:38;7.80;;;3.70;;
75038;SDS011;63609;49.992;14.512;2022-10-16T06:46:06;4.20;;;2.60;;
75038;SDS011;63609;49.992;14.512;2022-10-16T06:48:36;4.63;;;2.83;;
75038;SDS011;63609;49.992;14.512;2022-10-16T06:51:04;5.85;;;2.97;;
75038;SDS011;63609;49.992;14.512;2022-10-16T06:53:34;3.88;;;2.30;;
75038;SDS011;63609;49.992;14.512;2022-10-16T06:56:22;4.63;;;2.50;;
75038;SDS011;63609;49.992;14.512;2022-10-16T06:58:51;9.02;;;3.35;;
75038;SDS011;63609;49.992;14.512;2022-10-16T07:01:20;4.22;;;2.55;;
75038;SDS011;63609;49.992;14.512;2022-10-16T07:03:48;4.82;;;2.75;;
75038;SDS011;63609;49.992;14.512;2022-10-16T07:06:17;5.70;;;2.90;;
75038;SDS011;63609;49.992;14.512;2022-10-16T07:08:47;4.65;;;2.25;;
75038;SDS011;63609;49.992;14.512;2022-10-16T07:11:15;6.47;;;3.08;;
75038;SDS011;63609;49.992;14.512;2022-10-16T07:13:43;5.13;;;2.90;;
75038;SDS011;63609;49.992;14.512;2022-10-16T07:16:21;5.53;;;3.28;;
75038;SDS011;63609;49.992;14.512;2022-10-16T07:18:49;4.88;;;2.83;;
75038;SDS011;63609;49.992;14.512;2022-10-16T07:21:21;5.85;;;2.78;;
75038;SDS011;63609;49.992;14.512;2022-10-16T07:23:52;5.38;;;2.50;;
75038;SDS011;63609;49.992;14.512;2022-10-16T07:26:20;4.13;;;2.80;;
75038;SDS011;63609;49.992;14.512;2022-10-16T07:28:48;3.60;;;2.35;;
75038;SDS011;63609;49.992;14.512;2022-10-16T07:31:17;4.75;;;2.40;;
75038;SDS011;63609;49.992;14.512;2022-10-16T07:33:45;4.55;;;2.63;;
75038;SDS011;63609;49.992;14.512;2022-10-16T07:36:17;5.80;;;2.20;;
75038;SDS011;63609;49.992;14.512;2022-10-16T07:38:45;4.05;;;2.45;;
75038;SDS011;63609;49.992;14.512;2022-10-16T07:41:16;3.33;;;2.30;;
75038;SDS011;63609;49.992;14.512;2022-10-16T07:43:47;4.78;;;2.78;;
75038;SDS011;63609;49.992;14.512;2022-10-16T07:46:15;6.18;;;2.92;;
75038;SDS011;63609;49.992;14.512;2022-10-16T07:48:42;4.18;;;1.98;;
75038;SDS011;63609;49.992;14.512;2022-10-16T07:51:15;6.05;;;2.50;;
75038;SDS011;63609;49.992;14.512;2022-10-16T07:53:43;6.28;;;2.25;;
75038;SDS011;63609;49.992;14.512;2022-10-16T07:56:10;4.60;;;2.58;;
75038;SDS011;63609;49.992;14.512;2022-10-16T07:58:38;4.45;;;2.58;;
75038;SDS011;63609;49.992;14.512;2022-10-16T08:01:09;5.43;;;2.97;;
75038;SDS011;63609;49.992;14.512;2022-10-16T08:06:04;5.18;;;2.67;;
75038;SDS011;63609;49.992;14.512;2022-10-16T08:08:31;5.10;;;3.15;;
75038;SDS011;63609;49.992;14.512;2022-10-16T08:10:58;4.32;;;2.42;;
75038;SDS011;63609;49.992;14.512;2022-10-16T08:13:25;4.60;;;2.20;;
75038;SDS011;63609;49.992;14.512;2022-10-16T08:15:53;3.95;;;2.45;;
75038;SDS011;63609;49.992;14.512;2022-10-16T08:18:20;4.35;;;2.30;;
75038;SDS011;63609;49.992;14.512;2022-10-16T08:20:46;4.18;;;2.65;;
75038;SDS011;63609;49.992;14.512;2022-10-16T08:23:13;3.47;;;2.20;;
75038;SDS011;63609;49.992;14.512;2022-10-16T08:25:40;4.93;;;2.58;;
75038;SDS011;63609;49.992;14.512;2022-10-16T08:28:07;4.22;;;2.55;;
75038;SDS011;63609;49.992;14.512;2022-10-16T08:30:37;4.07;;;2.17;;
75038;SDS011;63609;49.992;14.512;2022-10-16T08:33:04;6.85;;;2.95;;
75038;SDS011;63609;49.992;14.512;2022-10-16T08:35:32;3.25;;;1.90;;
75038;SDS011;63609;49.992;14.512;2022-10-16T08:37:59;4.35;;;2.28;;
75038;SDS011;63609;49.992;14.512;2022-10-16T08:40:27;3.25;;;2.20;;
75038;SDS011;63609;49.992;14.512;2022-10-16T08:51:28;4.30;;;2.40;;
75038;SDS011;63609;49.992;14.512;2022-10-16T08:53:58;3.40;;;2.22;;
75038;SDS011;63609;49.992;14.512;2022-10-16T08:56:37;4.95;;;2.33;;
75038;SDS011;63609;49.992;14.512;2022-10-16T08:59:04;4.15;;;1.98;;
75038;SDS011;63609;49.992;14.512;2022-10-16T09:01:44;4.07;;;2.10;;
75038;SDS011;63609;49.992;14.512;2022-10-16T09:07:11;5.63;;;2.28;;
75038;SDS011;63609;49.992;14.512;2022-10-16T09:09:59;5.45;;;2.38;;
75038;SDS011;63609;49.992;14.512;2022-10-16T09:12:43;4.63;;;3.00;;
75038;SDS011;63609;49.992;14.512;2022-10-16T09:20:49;5.20;;;2.47;;
75038;SDS011;63609;49.992;14.512;2022-10-16T09:26:01;3.38;;;1.75;;
75038;SDS011;63609;49.992;14.512;2022-10-16T09:28:30;4.88;;;2.60;;
75038;SDS011;63609;49.992;14.512;2022-10-16T09:30:57;3.85;;;2.28;;
75038;SDS011;63609;49.992;14.512;2022-10-16T09:33:25;6.55;;;2.33;;
75038;SDS011;63609;49.992;14.512;2022-10-16T09:35:57;5.43;;;2.47;;
75038;SDS011;63609;49.992;14.512;2022-10-16T09:40:57;3.88;;;2.42;;
75038;SDS011;63609;49.992;14.512;2022-10-16T09:46:05;3.35;;;2.17;;
75038;SDS011;63609;49.992;14.512;2022-10-16T09:51:13;3.83;;;2.28;;
75038;SDS011;63609;49.992;14.512;2022-10-16T09:56:35;4.78;;;2.30;;
75038;SDS011;63609;49.992;14.512;2022-10-16T09:59:44;4.40;;;2.22;;
75038;SDS011;63609;49.992;14.512;2022-10-16T10:02:01;4.10;;;2.60;;
75038;SDS011;63609;49.992;14.512;2022-10-16T10:04:37;6.43;;;2.47;;
75038;SDS011;63609;49.992;14.512;2022-10-16T10:07:07;3.35;;;2.13;;
75038;SDS011;63609;49.992;14.512;2022-10-16T10:09:45;4.45;;;2.28;;
75038;SDS011;63609;49.992;14.512;2022-10-16T10:12:17;3.70;;;1.80;;
75038;SDS011;63609;49.992;14.512;2022-10-16T10:14:55;3.95;;;2.10;;
75038;SDS011;63609;49.992;14.512;2022-10-16T10:17:24;5.30;;;2.03;;
75038;SDS011;63609;49.992;14.512;2022-10-16T10:20:18;3.53;;;2.20;;
75038;SDS011;63609;49.992;14.512;2022-10-16T10:22:47;5.07;;;2.38;;
75038;SDS011;63609;49.992;14.512;2022-10-16T10:25:19;4.00;;;2.05;;
75038;SDS011;63609;49.992;14.512;2022-10-16T10:28:15;3.97;;;2.60;;
75038;SDS011;63609;49.992;14.512;2022-10-16T10:31:12;4.70;;;2.00;;
75038;SDS011;63609;49.992;14.512;2022-10-16T10:33:48;3.20;;;1.77;;
75038;SDS011;63609;49.992;14.512;2022-10-16T10:36:32;5.35;;;1.63;;
75038;SDS011;63609;49.992;14.512;2022-10-16T10:39:04;4.60;;;1.85;;
75038;SDS011;63609;49.992;14.512;2022-10-16T10:50:16;4.13;;;1.63;;
75038;SDS011;63609;49.992;14.512;2022-10-16T10:52:53;2.53;;;1.60;;
75038;SDS011;63609;49.992;14.512;2022-10-16T10:55:33;2.88;;;1.55;;
75038;SDS011;63609;49.992;14.512;2022-10-16T11:01:14;4.30;;;1.42;;
75038;SDS011;63609;49.992;14.512;2022-10-16T11:07:19;4.20;;;1.42;;
75038;SDS011;63609;49.992;14.512;2022-10-16T11:09:52;3.20;;;1.70;;
75038;SDS011;63609;49.992;14.512;2022-10-16T11:17:39;2.25;;;1.25;;
75038;SDS011;63609;49.992;14.512;2022-10-16T11:22:56;3.03;;;1.35;;
75038;SDS011;63609;49.992;14.512;2022-10-16T11:25:32;2.42;;;1.20;;
75038;SDS011;63609;49.992;14.512;2022-10-16T11:30:57;3.63;;;2.55;;
75038;SDS011;63609;49.992;14.512;2022-10-16T11:33:45;3.80;;;1.42;;
75038;SDS011;63609;49.992;14.512;2022-10-16T11:50:36;3.75;;;1.60;;
75038;SDS011;63609;49.992;14.512;2022-10-16T11:55:47;2.53;;;1.50;;
75038;SDS011;63609;49.992;14.512;2022-10-16T12:01:28;3.17;;;1.90;;
75038;SDS011;63609;49.992;14.512;2022-10-16T12:08:56;2.22;;;1.48;;
75038;SDS011;63609;49.992;14.512;2022-10-16T12:14:03;3.65;;;1.67;;
75038;SDS011;63609;49.992;14.512;2022-10-16T12:19:21;4.15;;;1.63;;
75038;SDS011;63609;49.992;14.512;2022-10-16T12:21:50;3.08;;;1.70;;
75038;SDS011;63609;49.992;14.512;2022-10-16T12:26:56;4.70;;;1.70;;
75038;SDS011;63609;49.992;14.512;2022-10-16T12:29:37;2.90;;;1.77;;
75038;SDS011;63609;49.992;14.512;2022-10-16T12:32:19;4.03;;;1.77;;
75038;SDS011;63609;49.992;14.512;2022-10-16T12:36:14;2.80;;;1.63;;
75038;SDS011;63609;49.992;14.512;2022-10-16T12:38:18;3.30;;;1.52;;
75038;SDS011;63609;49.992;14.512;2022-10-16T12:41:08;3.25;;;1.60;;
75038;SDS011;63609;49.992;14.512;2022-10-16T12:43:36;4.88;;;1.80;;
75038;SDS011;63609;49.992;14.512;2022-10-16T12:48:31;4.28;;;1.55;;
75038;SDS011;63609;49.992;14.512;2022-10-16T12:56:42;2.42;;;1.50;;
75038;SDS011;63609;49.992;14.512;2022-10-16T12:59:23;3.97;;;1.30;;
75038;SDS011;63609;49.992;14.512;2022-10-16T13:07:55;3.03;;;1.33;;
75038;SDS011;63609;49.992;14.512;2022-10-16T13:10:39;2.10;;;1.33;;
75038;SDS011;63609;49.992;14.512;2022-10-16T13:30:52;2.25;;;1.30;;
75038;SDS011;63609;49.992;14.512;2022-10-16T13:33:36;3.22;;;1.65;;
75038;SDS011;63609;49.992;14.512;2022-10-16T13:36:30;2.40;;;1.13;;
75038;SDS011;63609;49.992;14.512;2022-10-16T13:40:12;2.28;;;1.52;;
75038;SDS011;63609;49.992;14.512;2022-10-16T13:42:49;3.75;;;1.60;;
75038;SDS011;63609;49.992;14.512;2022-10-16T13:45:22;2.38;;;1.40;;
75038;SDS011;63609;49.992;14.512;2022-10-16T13:48:04;4.90;;;1.55;;
75038;SDS011;63609;49.992;14.512;2022-10-16T13:50:36;2.90;;;1.48;;
75038;SDS011;63609;49.992;14.512;2022-10-16T13:53:20;2.55;;;1.50;;
75038;SDS011;63609;49.992;14.512;2022-10-16T13:55:47;2.80;;;1.42;;
75038;SDS011;63609;49.992;14.512;2022-10-16T13:58:14;4.60;;;1.80;;
75038;SDS011;63609;49.992;14.512;2022-10-16T14:00:52;3.22;;;2.00;;
75038;SDS011;63609;49.992;14.512;2022-10-16T14:06:01;5.65;;;2.58;;
75038;SDS011;63609;49.992;14.512;2022-10-16T14:08:30;4.18;;;2.50;;
75038;SDS011;63609;49.992;14.512;2022-10-16T14:11:00;4.95;;;2.58;;
75038;SDS011;63609;49.992;14.512;2022-10-16T14:13:29;5.28;;;2.72;;
75038;SDS011;63609;49.992;14.512;2022-10-16T14:16:05;5.28;;;2.55;;
75038;SDS011;63609;49.992;14.512;2022-10-16T14:18:45;9.73;;;3.25;;
75038;SDS011;63609;49.992;14.512;2022-10-16T14:21:25;10.65;;;4.35;;
75038;SDS011;63609;49.992;14.512;2022-10-16T14:23:52;10.82;;;4.80;;
75038;SDS011;63609;49.992;14.512;2022-10-16T14:26:29;8.85;;;4.35;;
75038;SDS011;63609;49.992;14.512;2022-10-16T14:29:17;8.50;;;4.68;;
75038;SDS011;63609;49.992;14.512;2022-10-16T14:32:03;10.32;;;5.32;;
75038;SDS011;63609;49.992;14.512;2022-10-16T14:34:32;8.30;;;3.90;;
75038;SDS011;63609;49.992;14.512;2022-10-16T14:37:01;4.22;;;2.38;;
75038;SDS011;63609;49.992;14.512;2022-10-16T14:39:54;3.92;;;2.10;;
75038;SDS011;63609;49.992;14.512;2022-10-16T14:42:27;3.75;;;2.08;;
75038;SDS011;63609;49.992;14.512;2022-10-16T14:44:54;3.83;;;2.35;;
75038;SDS011;63609;49.992;14.512;2022-10-16T14:47:23;5.78;;;2.95;;
75038;SDS011;63609;49.992;14.512;2022-10-16T14:49:54;10.73;;;4.32;;
75038;SDS011;63609;49.992;14.512;2022-10-16T14:52:22;7.50;;;4.18;;
75038;SDS011;63609;49.992;14.512;2022-10-16T14:54:51;7.90;;;4.40;;
75038;SDS011;63609;49.992;14.512;2022-10-16T15:15:55;6.88;;;3.95;;
75038;SDS011;63609;49.992;14.512;2022-10-16T15:18:25;3.97;;;2.63;;
75038;SDS011;63609;49.992;14.512;2022-10-16T15:20:53;3.53;;;2.10;;
75038;SDS011;63609;49.992;14.512;2022-10-16T15:23:21;4.25;;;2.50;;
75038;SDS011;63609;49.992;14.512;2022-10-16T15:28:17;5.55;;;2.47;;
75038;SDS011;63609;49.992;14.512;2022-10-16T15:30:48;6.88;;;3.20;;
75038;SDS011;63609;49.992;14.512;2022-10-16T15:33:22;5.57;;;3.30;;
75038;SDS011;63609;49.992;14.512;2022-10-16T15:35:53;5.70;;;3.00;;
75038;SDS011;63609;49.992;14.512;2022-10-16T15:38:21;6.75;;;3.00;;
75038;SDS011;63609;49.992;14.512;2022-10-16T15:40:49;7.18;;;3.30;;
75038;SDS011;63609;49.992;14.512;2022-10-16T15:43:16;7.20;;;3.38;;
75038;SDS011;63609;49.992;14.512;2022-10-16T15:45:44;6.50;;;3.13;;
75038;SDS011;63609;49.992;14.512;2022-10-16T15:48:24;4.18;;;2.80;;
75038;SDS011;63609;49.992;14.512;2022-10-16T15:50:51;6.93;;;3.38;;
75038;SDS011;63609;49.992;14.512;2022-10-16T15:53:17;7.38;;;2.92;;
75038;SDS011;63609;49.992;14.512;2022-10-16T15:55:44;6.85;;;3.67;;
75038;SDS011;63609;49.992;14.512;2022-10-16T15:58:16;7.05;;;3.35;;
75038;SDS011;63609;49.992;14.512;2022-10-16T16:00:53;8.13;;;3.65;;
75038;SDS011;63609;49.992;14.512;2022-10-16T16:03:27;7.97;;;3.90;;
75038;SDS011;63609;49.992;14.512;2022-10-16T16:05:55;8.57;;;4.32;;
75038;SDS011;63609;49.992;14.512;2022-10-16T16:08:22;9.07;;;4.90;;
75038;SDS011;63609;49.992;14.512;2022-10-16T18:10:53;8.90;;;5.80;;
75038;SDS011;63609;49.992;14.512;2022-10-16T18:13:24;10.95;;;6.32;;
75038;SDS011;63609;49.992;14.512;2022-10-16T18:16:00;11.75;;;7.28;;
75038;SDS011;63609;49.992;14.512;2022-10-16T18:18:33;11.27;;;7.13;;
75038;SDS011;63609;49.992;14.512;2022-10-16T18:21:01;12.50;;;6.90;;
75038;SDS011;63609;49.992;14.512;2022-10-16T18:23:29;9.65;;;5.20;;
75038;SDS011;63609;49.992;14.512;2022-10-16T18:25:59;7.68;;;4.50;;
75038;SDS011;63609;49.992;14.512;2022-10-16T18:28:32;8.32;;;4.70;;
75038;SDS011;63609;49.992;14.512;2022-10-16T18:31:07;8.00;;;4.43;;
75038;SDS011;63609;49.992;14.512;2022-10-16T18:33:37;8.65;;;4.72;;
75038;SDS011;63609;49.992;14.512;2022-10-16T18:36:06;7.75;;;4.28;;
75038;SDS011;63609;49.992;14.512;2022-10-16T18:38:35;8.18;;;4.55;;
75038;SDS011;63609;49.992;14.512;2022-10-16T18:41:03;6.90;;;4.55;;
75038;SDS011;63609;49.992;14.512;2022-10-16T18:44:54;11.30;;;4.53;;
75038;SDS011;63609;49.992;14.512;2022-10-16T18:47:21;8.98;;;4.65;;
75038;SDS011;63609;49.992;14.512;2022-10-16T18:49:48;6.97;;;4.28;;
75038;SDS011;63609;49.992;14.512;2022-10-16T18:52:15;9.90;;;4.70;;
75038;SDS011;63609;49.992;14.512;2022-10-16T18:54:44;7.30;;;4.22;;
75038;SDS011;63609;49.992;14.512;2022-10-16T18:57:11;7.65;;;3.88;;
75038;SDS011;63609;49.992;14.512;2022-10-16T18:59:38;7.28;;;3.53;;
75038;SDS011;63609;49.992;14.512;2022-10-16T19:02:05;8.27;;;3.97;;
75038;SDS011;63609;49.992;14.512;2022-10-16T19:06:10;6.70;;;4.15;;
75038;SDS011;63609;49.992;14.512;2022-10-16T19:09:29;7.38;;;4.00;;
75038;SDS011;63609;49.992;14.512;2022-10-16T19:11:57;6.65;;;3.85;;
75038;SDS011;63609;49.992;14.512;2022-10-16T19:14:25;6.40;;;3.80;;
75038;SDS011;63609;49.992;14.512;2022-10-16T19:16:55;7.70;;;4.28;;
75038;SDS011;63609;49.992;14.512;2022-10-16T19:19:21;6.78;;;4.45;;
75038;SDS011;63609;49.992;14.512;2022-10-16T19:21:49;11.55;;;4.38;;
75038;SDS011;63609;49.992;14.512;2022-10-16T19:24:21;6.65;;;4.57;;
75038;SDS011;63609;49.992;14.512;2022-10-16T19:26:48;9.40;;;4.53;;
75038;SDS011;63609;49.992;14.512;2022-10-16T19:29:15;9.60;;;4.82;;
75038;SDS011;63609;49.992;14.512;2022-10-16T19:31:44;8.02;;;4.55;;
75038;SDS011;63609;49.992;14.512;2022-10-16T19:34:11;9.20;;;5.30;;
75038;SDS011;63609;49.992;14.512;2022-10-16T19:36:38;8.70;;;5.70;;
75038;SDS011;63609;49.992;14.512;2022-10-16T19:39:11;11.63;;;5.85;;
75038;SDS011;63609;49.992;14.512;2022-10-16T19:41:40;12.52;;;5.95;;
75038;SDS011;63609;49.992;14.512;2022-10-16T19:44:15;10.68;;;5.68;;
75038;SDS011;63609;49.992;14.512;2022-10-16T19:48:38;9.98;;;5.45;;
75038;SDS011;63609;49.992;14.512;2022-10-16T19:51:10;12.18;;;6.03;;